Terminal Aerodrome Forecast
Issued by NWS

Home | Current Version | Previous Version | Text Only | Print | Product List | Glossary On
Versions: 1 2 3 4 5 6 7 8 9 10 11 12 13 14
000
FTUS42 KGSP 181741
TAFHKY
TAF
KHKY 181741Z 1818/1918 08004KT P6SM FEW250
     FM182200 VRB03KT P6SM FEW250
     FM191000 00000KT 1/2SM FG OVC002
     FM191200 VRB03KT P6SM FEW250=

USA.gov is the U.S. government's official web portal to all federal, state and local government web resources and services.